createdAt,value
2019-02-11T11:24:42.854Z,405.00
2019-02-11T11:25:42.789Z,495.00
2019-02-11T11:26:42.788Z,523.12
2019-02-11T11:27:42.769Z,534.37
2019-02-11T11:28:42.792Z,483.75
2019-02-11T11:29:42.754Z,511.87
2019-02-11T11:30:42.746Z,461.25
2019-02-11T11:31:42.900Z,421.87
2019-02-11T11:32:42.725Z,405.00
2019-02-11T11:33:42.705Z,388.12
2019-02-11T11:34:42.750Z,405.00
2019-02-11T11:35:42.692Z,382.50
2019-02-11T11:36:42.707Z,371.25
2019-02-11T11:37:42.674Z,421.87
2019-02-11T11:38:42.662Z,461.25
2019-02-11T11:39:42.694Z,511.87
2019-02-11T11:40:42.675Z,472.50
2019-02-11T11:41:42.613Z,506.25
2019-02-11T11:42:42.639Z,495.00
2019-02-11T11:43:42.651Z,360.00
2019-02-11T11:44:42.634Z,365.62
2019-02-11T11:45:42.578Z,343.12
2019-02-11T11:46:47.061Z,421.87
2019-02-11T11:48:07.889Z,450.00
2019-02-11T11:49:07.874Z,444.37
2019-02-11T11:50:07.888Z,427.50
2019-02-11T11:51:08.723Z,433.12
2019-02-11T11:52:07.861Z,388.12
2019-02-11T11:53:07.869Z,410.62
2019-02-11T11:54:07.815Z,483.75
2019-02-11T11:55:07.799Z,410.62
2019-02-11T11:56:07.797Z,376.87
2019-02-11T11:57:07.800Z,331.87
2019-02-11T11:58:07.844Z,315.00
2019-02-11T11:59:07.821Z,303.75
2019-02-11T12:00:38.616Z,410.62
2019-02-11T12:01:33.553Z,455.62
2019-02-11T12:02:33.387Z,466.87
2019-02-11T12:03:33.350Z,489.37
2019-02-11T12:04:33.354Z,495.00
2019-02-11T12:05:33.331Z,478.12
2019-02-11T12:06:33.323Z,450.00
2019-02-11T12:07:33.382Z,416.25
2019-02-11T12:08:33.317Z,405.00
2019-02-11T12:09:33.315Z,382.50
2019-02-11T12:10:33.367Z,399.37
2019-02-11T12:11:33.306Z,416.25
2019-02-11T12:12:33.297Z,421.87
2019-02-11T12:13:33.284Z,421.87
2019-02-11T12:14:33.266Z,427.50
2019-02-11T12:15:36.338Z,433.12
2019-02-11T12:16:33.208Z,466.87
2019-02-11T12:17:33.207Z,478.12
2019-02-11T12:18:33.204Z,466.87
2019-02-11T12:19:33.173Z,455.62
2019-02-11T12:20:34.499Z,461.25
2019-02-11T12:21:33.173Z,461.25
2019-02-11T12:22:33.161Z,483.75
2019-02-11T12:23:33.146Z,495.00
2019-02-11T12:24:33.125Z,528.75
2019-02-11T12:25:33.140Z,489.37
2019-02-11T12:26:33.106Z,455.62
2019-02-11T12:27:33.109Z,450.00
2019-02-11T12:28:33.083Z,416.25
2019-02-11T12:29:33.077Z,371.25
2019-02-11T12:30:33.096Z,320.62
2019-02-11T12:31:33.057Z,292.50
2019-02-11T12:32:33.058Z,270.00
2019-02-11T12:33:33.038Z,264.37
2019-02-11T12:34:33.021Z,247.50
2019-02-11T12:35:33.007Z,292.50
2019-02-11T12:36:33.010Z,382.50
2019-02-11T12:37:32.987Z,376.87
2019-02-11T12:38:33.005Z,337.50
2019-02-11T12:39:32.975Z,303.75
2019-02-11T12:40:32.988Z,258.75
2019-02-11T12:41:32.960Z,270.00
2019-02-11T12:42:32.961Z,292.50
2019-02-11T12:43:32.939Z,264.37
2019-02-11T12:44:32.931Z,270.00
2019-02-11T12:45:34.131Z,275.62
2019-02-11T12:46:32.893Z,253.12
2019-02-11T12:47:32.881Z,258.75
2019-02-11T12:48:32.889Z,253.12
2019-02-11T12:49:33.077Z,241.87
2019-02-11T12:50:32.877Z,241.87
2019-02-11T12:51:32.898Z,225.00
2019-02-11T12:52:32.830Z,230.62
2019-02-11T12:53:32.819Z,270.00
2019-02-11T12:54:33.201Z,281.25
2019-02-11T12:55:32.790Z,264.37
2019-02-11T12:56:32.808Z,230.62
2019-02-11T12:57:32.818Z,168.75
2019-02-11T12:58:32.751Z,174.37
2019-02-11T12:59:32.753Z,185.62
2019-02-11T13:00:32.758Z,191.25
2019-02-11T13:01:32.778Z,191.25
2019-02-11T13:02:32.722Z,191.25
2019-02-11T13:03:32.712Z,208.12
2019-02-11T13:04:32.694Z,196.87
2019-02-11T13:05:45.224Z,174.37
2019-02-11T13:06:57.762Z,185.62
2019-02-11T13:07:57.764Z,191.25
2019-02-11T13:08:57.768Z,253.12
2019-02-11T13:09:57.728Z,236.25
2019-02-11T13:10:57.756Z,241.87
2019-02-11T13:11:57.722Z,270.00
2019-02-11T13:12:57.699Z,281.25
2019-02-11T13:13:57.722Z,241.87
2019-02-11T13:14:57.691Z,236.25
2019-02-11T13:16:02.135Z,230.62
2019-02-11T13:16:57.653Z,208.12
2019-02-11T13:17:57.675Z,202.50
2019-02-11T13:18:57.625Z,180.00
2019-02-11T13:20:08.521Z,185.62
2019-02-11T13:21:22.857Z,146.25
2019-02-11T13:22:22.826Z,174.37
2019-02-11T13:23:22.813Z,208.12
2019-02-11T13:24:22.822Z,331.87
2019-02-11T13:25:22.792Z,348.75
2019-02-11T13:26:25.691Z,309.37
2019-02-11T13:27:22.758Z,298.12
2019-02-11T13:28:22.762Z,303.75
2019-02-11T13:29:22.753Z,286.87
2019-02-11T13:30:22.748Z,315.00
2019-02-11T13:31:22.729Z,303.75
2019-02-11T13:32:22.726Z,281.25
2019-02-11T13:33:22.696Z,258.75
2019-02-11T13:34:22.700Z,230.62
2019-02-11T13:35:22.703Z,236.25
2019-02-11T13:36:22.667Z,286.87
2019-02-11T13:37:22.659Z,275.62
2019-02-11T13:38:22.663Z,298.12
2019-02-11T13:39:22.644Z,360.00
2019-02-11T13:40:22.673Z,382.50
2019-02-11T13:41:22.632Z,365.62
2019-02-11T13:42:22.604Z,337.50
2019-02-11T13:43:22.602Z,365.62
2019-02-11T13:44:22.585Z,360.00
2019-02-11T13:45:22.590Z,365.62
2019-02-11T13:46:22.684Z,275.62
2019-02-11T13:47:22.565Z,241.87
2019-02-11T13:48:22.551Z,241.87
2019-02-11T13:49:22.547Z,202.50
2019-02-11T13:50:22.520Z,208.12
2019-02-11T13:51:22.562Z,236.25
2019-02-11T13:52:22.523Z,168.75
2019-02-11T13:53:22.494Z,151.87
2019-02-11T13:54:22.480Z,123.75
2019-02-11T13:55:22.468Z,118.12
2019-02-11T13:56:22.455Z,118.12
2019-02-11T13:57:22.491Z,135.00
2019-02-11T13:58:22.432Z,118.12
2019-02-11T13:59:22.412Z,118.12
2019-02-11T14:00:22.466Z,140.62
2019-02-11T14:01:22.397Z,135.00
2019-02-11T14:02:22.401Z,129.37
2019-02-11T14:03:22.381Z,146.25
2019-02-11T14:04:22.386Z,163.12
2019-02-11T14:05:22.425Z,146.25
2019-02-11T14:06:22.382Z,112.50
2019-02-11T14:07:22.361Z,90.00
2019-02-11T14:08:22.343Z,78.75
2019-02-11T14:09:22.333Z,78.75
2019-02-11T14:10:22.316Z,90.00
2019-02-11T14:11:22.290Z,90.00
2019-02-11T14:12:22.477Z,95.62
2019-02-11T14:13:22.311Z,123.75
2019-02-11T14:14:22.303Z,135.00
2019-02-11T14:15:22.247Z,151.87
2019-02-11T14:16:22.251Z,146.25
2019-02-11T14:17:22.214Z,118.12
2019-02-11T14:18:22.206Z,112.50
2019-02-11T14:19:22.223Z,135.00
2019-02-11T14:20:22.218Z,118.12
2019-02-11T14:21:22.197Z,106.87
2019-02-11T14:22:22.179Z,106.87
2019-02-11T14:23:22.200Z,118.12
2019-02-11T14:24:22.145Z,112.50
2019-02-11T14:25:40.572Z,95.62
2019-02-11T14:26:47.958Z,78.75
2019-02-11T14:27:47.985Z,61.87
2019-02-11T14:28:49.725Z,61.87
2019-02-11T14:29:47.936Z,56.25
2019-02-11T14:30:47.907Z,61.87
2019-02-11T14:31:47.898Z,50.62
2019-02-11T14:32:47.901Z,50.62
2019-02-11T14:33:47.987Z,50.62
2019-02-11T14:34:47.926Z,61.87
2019-02-11T14:35:47.920Z,61.87
2019-02-11T14:36:47.926Z,90.00
2019-02-11T14:37:47.825Z,129.37
2019-02-11T14:38:47.845Z,140.62
2019-02-11T14:39:47.812Z,146.25
2019-02-11T14:40:48.093Z,168.75
2019-02-11T14:41:47.821Z,225.00
2019-02-11T14:42:47.775Z,264.37
2019-02-11T14:43:47.800Z,298.12
2019-02-11T14:44:47.773Z,298.12
2019-02-11T14:45:47.871Z,281.25
2019-02-11T14:46:47.729Z,281.25
2019-02-11T14:47:47.801Z,286.87
2019-02-11T14:48:47.723Z,275.62
2019-02-11T14:49:47.748Z,281.25
2019-02-11T14:50:47.687Z,298.12
2019-02-11T14:51:47.704Z,309.37
2019-02-11T14:52:47.667Z,331.87
2019-02-11T14:53:47.888Z,315.00
2019-02-11T14:54:47.890Z,298.12
2019-02-11T14:55:47.634Z,264.37
2019-02-11T14:56:47.653Z,213.75
2019-02-11T14:57:47.621Z,180.00
2019-02-11T14:58:47.602Z,140.62
2019-02-11T14:59:47.586Z,123.75
2019-02-11T15:00:47.571Z,123.75
2019-02-11T15:01:47.563Z,106.87
2019-02-11T15:02:47.583Z,78.75
2019-02-11T15:03:47.992Z,67.50
2019-02-11T15:04:47.542Z,73.12
2019-02-11T15:05:47.527Z,73.12
2019-02-11T15:06:47.509Z,84.37
2019-02-11T15:07:47.499Z,84.37
2019-02-11T15:08:47.507Z,135.00
2019-02-11T15:09:48.344Z,168.75
2019-02-11T15:10:47.455Z,157.50
2019-02-11T15:11:47.511Z,180.00
2019-02-11T15:12:47.470Z,168.75
2019-02-11T15:13:47.443Z,151.87
2019-02-11T15:14:47.440Z,135.00
2019-02-11T15:15:47.417Z,123.75
2019-02-11T15:16:47.398Z,118.12
2019-02-11T15:17:47.388Z,118.12
2019-02-11T15:18:47.395Z,118.12
2019-02-11T15:19:47.357Z,129.37
2019-02-11T15:20:47.367Z,135.00
2019-02-11T15:21:47.344Z,135.00
2019-02-11T15:22:47.335Z,123.75
2019-02-11T15:23:47.436Z,112.50
2019-02-11T15:24:47.326Z,95.62
2019-02-11T15:25:47.303Z,90.00
2019-02-11T15:26:47.292Z,84.37
2019-02-11T15:27:47.276Z,84.37
2019-02-11T15:28:47.272Z,84.37
2019-02-11T15:29:47.253Z,78.75
2019-02-11T15:30:47.238Z,78.75
2019-02-11T15:31:47.284Z,106.87
2019-02-11T15:32:47.270Z,118.12
2019-02-11T15:33:48.228Z,112.50
2019-02-11T15:34:47.190Z,101.25
2019-02-11T15:35:47.249Z,95.62
2019-02-11T15:36:47.177Z,84.37
2019-02-11T15:37:47.175Z,67.50
2019-02-11T15:38:47.152Z,56.25
2019-02-11T15:39:47.531Z,45.00
2019-02-11T15:40:47.143Z,39.37
2019-02-11T15:41:47.116Z,50.62
2019-02-11T15:42:47.116Z,61.87
2019-02-11T15:43:47.108Z,56.25
2019-02-11T15:44:47.094Z,61.87
2019-02-11T15:45:47.101Z,61.87
2019-02-11T15:46:47.062Z,73.12
2019-02-11T15:47:47.070Z,84.37
2019-02-11T15:48:47.121Z,84.37
2019-02-11T15:49:47.039Z,90.00
2019-02-11T15:50:47.039Z,90.00
2019-02-11T15:51:47.143Z,84.37
2019-02-11T15:52:47.038Z,78.75
2019-02-11T15:53:47.086Z,73.12
2019-02-11T15:54:47.001Z,67.50
2019-02-11T15:55:46.978Z,67.50
2019-02-11T15:56:46.960Z,67.50
2019-02-11T15:57:46.945Z,61.87
2019-02-11T15:58:46.932Z,61.87
2019-02-11T15:59:46.925Z,61.87
2019-02-11T16:00:46.914Z,61.87
2019-02-11T16:01:46.905Z,61.87
2019-02-11T16:02:46.905Z,61.87
2019-02-11T16:03:46.888Z,61.87
2019-02-11T16:04:46.987Z,61.87
2019-02-11T16:05:49.610Z,61.87
2019-02-11T16:06:46.849Z,56.25
2019-02-11T16:07:46.862Z,61.87
2019-02-11T16:08:46.831Z,61.87
2019-02-11T16:09:46.814Z,67.50
2019-02-11T16:10:46.805Z,67.50
2019-02-11T16:11:46.860Z,61.87
2019-02-11T16:12:46.789Z,61.87
2019-02-11T16:13:46.783Z,56.25
2019-02-11T16:14:46.765Z,50.62
2019-02-11T16:15:46.773Z,50.62
2019-02-11T16:16:46.782Z,50.62
2019-02-11T16:17:46.752Z,45.00
2019-02-11T16:18:51.859Z,45.00
2019-02-11T16:19:46.710Z,45.00
2019-02-11T16:20:46.743Z,39.37
2019-02-11T16:21:46.691Z,39.37
2019-02-11T16:22:46.676Z,33.75
2019-02-11T16:23:46.729Z,33.75
2019-02-11T16:24:46.663Z,33.75
2019-02-11T16:25:46.653Z,28.12
2019-02-11T16:26:46.658Z,28.12
2019-02-11T16:27:46.637Z,22.50
2019-02-11T16:28:46.616Z,28.12
2019-02-11T16:29:46.598Z,22.50
2019-02-11T16:30:46.598Z,22.50
2019-02-11T16:31:46.607Z,22.50
2019-02-11T16:32:46.574Z,22.50
2019-02-11T16:33:46.567Z,16.87
2019-02-11T16:34:46.553Z,16.87
2019-02-11T16:35:46.546Z,16.87
2019-02-11T16:36:46.527Z,16.87
2019-02-11T16:37:46.518Z,11.25
2019-02-11T16:38:46.516Z,11.25
2019-02-11T16:39:46.495Z,11.25
2019-02-11T16:40:46.479Z,11.25
2019-02-11T16:41:46.476Z,11.25
2019-02-11T16:42:46.467Z,11.25
2019-02-11T16:43:46.450Z,5.62
2019-02-11T16:44:46.450Z,5.62
2019-02-11T16:45:46.446Z,5.62
2019-02-11T16:46:46.419Z,5.62
2019-02-11T16:47:46.414Z,5.62
2019-02-11T16:48:46.439Z,5.62
2019-02-11T16:49:46.392Z,0.00
2019-02-11T16:50:46.389Z,0.00
2019-02-11T16:51:46.402Z,0.00
2019-02-11T16:52:46.373Z,0.00
2019-02-11T16:53:46.391Z,0.00
2019-02-11T16:54:46.332Z,0.00
2019-02-11T16:55:46.353Z,0.00
2019-02-11T16:56:46.343Z,0.00
2019-02-11T16:57:46.319Z,0.00
2019-02-11T16:58:46.306Z,0.00
2019-02-11T16:59:46.300Z,0.00
2019-02-11T17:00:46.274Z,0.00
2019-02-11T17:01:46.264Z,0.00
2019-02-11T17:02:46.246Z,0.00
2019-02-11T17:03:46.268Z,0.00
2019-02-11T17:04:46.221Z,0.00
2019-02-11T17:05:46.214Z,0.00
2019-02-11T17:06:46.198Z,0.00
2019-02-11T17:07:46.204Z,0.00
2019-02-11T17:08:46.186Z,0.00
2019-02-11T17:09:46.169Z,0.00
2019-02-11T17:10:46.178Z,0.00
2019-02-11T17:11:46.161Z,0.00
2019-02-11T18:19:45.410Z,0.00
